Westville, Indiana
Current Conditions -  °F | °C
As of 3:56 AM on Thursday 23 Oct 2014 (Local Time) from KVPZ Reporting Station
Moderate Fog Moderate Fog  
Wind Chill: 32°   Ceiling: 200
Heat Index: 32°   Visibility: 0.25mi
Dew Point: 31°   Wind: 3mph
Humidity: 96%   Direction: 60°ENE
Pressure: 30.25"   Gusts: NA
Location:  41.54°N, 86.9°W
Report Text: KVPZ 230856Z AUTO 06003KT 1/4SM FG VV002 00/M01 A3025 RMK AO2 SLP250 T00001006 58007 TSNO
Loading
Personal Weather Stations






























Interactive Weather Map
Tropical Storm Tracking
New forecast layout! Learn more

10-Day Weather Forecast

Advertisements
Track Severe Weather on mobile